sensor_id;sensor_type;location;lat;lon;timestamp;temperature;humidity
6690;DHT22;76797;51.590;8.116;2024-03-17T00:01:50;11.30;99.90
6690;DHT22;76797;51.590;8.116;2024-03-17T00:04:15;11.30;99.90
6690;DHT22;76797;51.590;8.116;2024-03-17T00:06:41;11.20;99.90
6690;DHT22;76797;51.590;8.116;2024-03-17T00:09:06;11.20;99.90
6690;DHT22;76797;51.590;8.116;2024-03-17T00:11:35;10.70;99.90
6690;DHT22;76797;51.590;8.116;2024-03-17T00:14:01;11.10;99.90
6690;DHT22;76797;51.590;8.116;2024-03-17T00:16:27;11.50;99.90
6690;DHT22;76797;51.590;8.116;2024-03-17T00:18:53;11.00;99.90
6690;DHT22;76797;51.590;8.116;2024-03-17T00:21:18;11.30;99.90
6690;DHT22;76797;51.590;8.116;2024-03-17T00:23:47;11.00;99.90
6690;DHT22;76797;51.590;8.116;2024-03-17T00:26:13;11.00;99.90
6690;DHT22;76797;51.590;8.116;2024-03-17T00:28:39;11.20;99.90
6690;DHT22;76797;51.590;8.116;2024-03-17T00:31:05;10.90;99.90
6690;DHT22;76797;51.590;8.116;2024-03-17T00:33:30;11.10;99.90
6690;DHT22;76797;51.590;8.116;2024-03-17T00:35:56;10.80;99.90
6690;DHT22;76797;51.590;8.116;2024-03-17T00:38:21;10.90;99.90
6690;DHT22;76797;51.590;8.116;2024-03-17T00:40:47;11.20;99.90
6690;DHT22;76797;51.590;8.116;2024-03-17T00:43:14;10.80;99.90
6690;DHT22;76797;51.590;8.116;2024-03-17T00:45:39;11.10;99.90
6690;DHT22;76797;51.590;8.116;2024-03-17T00:48:05;11.10;99.90
6690;DHT22;76797;51.590;8.116;2024-03-17T00:50:35;10.70;99.90
6690;DHT22;76797;51.590;8.116;2024-03-17T00:53:00;10.80;99.90
6690;DHT22;76797;51.590;8.116;2024-03-17T00:55:28;10.60;99.90
6690;DHT22;76797;51.590;8.116;2024-03-17T00:57:54;10.90;99.90
6690;DHT22;76797;51.590;8.116;2024-03-17T01:00:19;10.60;99.90
6690;DHT22;76797;51.590;8.116;2024-03-17T01:02:45;10.60;99.90
6690;DHT22;76797;51.590;8.116;2024-03-17T01:05:11;10.60;99.90
6690;DHT22;76797;51.590;8.116;2024-03-17T01:07:37;10.50;99.90
6690;DHT22;76797;51.590;8.116;2024-03-17T01:10:02;10.50;99.90
6690;DHT22;76797;51.590;8.116;2024-03-17T01:12:28;10.50;99.90
6690;DHT22;76797;51.590;8.116;2024-03-17T01:14:54;10.50;99.90
6690;DHT22;76797;51.590;8.116;2024-03-17T01:17:19;10.40;99.90
6690;DHT22;76797;51.590;8.116;2024-03-17T01:19:45;10.50;99.90
6690;DHT22;76797;51.590;8.116;2024-03-17T01:22:11;10.40;99.90
6690;DHT22;76797;51.590;8.116;2024-03-17T01:24:37;10.40;99.90
6690;DHT22;76797;51.590;8.116;2024-03-17T01:27:05;10.60;99.90
6690;DHT22;76797;51.590;8.116;2024-03-17T01:29:31;10.40;99.90
6690;DHT22;76797;51.590;8.116;2024-03-17T01:31:57;10.40;99.90
6690;DHT22;76797;51.590;8.116;2024-03-17T01:34:22;10.40;99.90
6690;DHT22;76797;51.590;8.116;2024-03-17T01:36:48;10.30;99.90
6690;DHT22;76797;51.590;8.116;2024-03-17T01:39:13;10.30;99.90
6690;DHT22;76797;51.590;8.116;2024-03-17T01:41:41;10.30;99.90
6690;DHT22;76797;51.590;8.116;2024-03-17T01:44:07;10.30;99.90
6690;DHT22;76797;51.590;8.116;2024-03-17T01:46:32;10.30;99.90
6690;DHT22;76797;51.590;8.116;2024-03-17T01:48:58;10.30;99.90
6690;DHT22;76797;51.590;8.116;2024-03-17T01:51:24;10.20;99.90
6690;DHT22;76797;51.590;8.116;2024-03-17T01:53:50;10.30;99.90
6690;DHT22;76797;51.590;8.116;2024-03-17T01:56:16;10.20;99.90
6690;DHT22;76797;51.590;8.116;2024-03-17T01:58:44;10.20;99.90
6690;DHT22;76797;51.590;8.116;2024-03-17T02:01:11;10.20;99.90
6690;DHT22;76797;51.590;8.116;2024-03-17T02:03:40;10.10;99.90
6690;DHT22;76797;51.590;8.116;2024-03-17T02:06:07;10.60;99.90
6690;DHT22;76797;51.590;8.116;2024-03-17T02:08:53;10.60;99.90
6690;DHT22;76797;51.590;8.116;2024-03-17T02:13:52;10.00;99.90
6690;DHT22;76797;51.590;8.116;2024-03-17T02:16:17;9.90;99.90
6690;DHT22;76797;51.590;8.116;2024-03-17T02:18:44;9.90;99.90
6690;DHT22;76797;51.590;8.116;2024-03-17T02:21:09;9.90;99.90
6690;DHT22;76797;51.590;8.116;2024-03-17T02:23:35;9.80;99.90
6690;DHT22;76797;51.590;8.116;2024-03-17T02:26:01;9.80;99.90
6690;DHT22;76797;51.590;8.116;2024-03-17T02:28:26;9.80;99.90
6690;DHT22;76797;51.590;8.116;2024-03-17T02:30:53;9.80;99.90
6690;DHT22;76797;51.590;8.116;2024-03-17T02:33:18;9.70;99.90
6690;DHT22;76797;51.590;8.116;2024-03-17T02:35:44;10.10;99.90
6690;DHT22;76797;51.590;8.116;2024-03-17T02:38:10;10.00;99.90
6690;DHT22;76797;51.590;8.116;2024-03-17T02:41:00;9.60;99.90
6690;DHT22;76797;51.590;8.116;2024-03-17T02:43:26;9.60;99.90
6690;DHT22;76797;51.590;8.116;2024-03-17T02:45:51;9.60;99.90
6690;DHT22;76797;51.590;8.116;2024-03-17T02:48:17;9.50;99.90
6690;DHT22;76797;51.590;8.116;2024-03-17T02:50:43;9.50;99.90
6690;DHT22;76797;51.590;8.116;2024-03-17T02:53:09;9.50;99.90
6690;DHT22;76797;51.590;8.116;2024-03-17T02:55:34;9.50;99.90
6690;DHT22;76797;51.590;8.116;2024-03-17T02:58:00;9.50;99.90
6690;DHT22;76797;51.590;8.116;2024-03-17T03:00:26;9.50;99.90
6690;DHT22;76797;51.590;8.116;2024-03-17T03:02:51;9.50;99.90
6690;DHT22;76797;51.590;8.116;2024-03-17T03:05:17;9.50;99.90
6690;DHT22;76797;51.590;8.116;2024-03-17T03:07:42;9.50;99.90
6690;DHT22;76797;51.590;8.116;2024-03-17T03:10:08;9.50;99.90
6690;DHT22;76797;51.590;8.116;2024-03-17T03:12:34;9.50;99.90
6690;DHT22;76797;51.590;8.116;2024-03-17T03:14:59;9.50;99.90
6690;DHT22;76797;51.590;8.116;2024-03-17T03:17:25;9.50;99.90
6690;DHT22;76797;51.590;8.116;2024-03-17T03:19:50;9.40;99.90
6690;DHT22;76797;51.590;8.116;2024-03-17T03:22:16;9.40;99.90
6690;DHT22;76797;51.590;8.116;2024-03-17T03:24:41;9.50;99.90
6690;DHT22;76797;51.590;8.116;2024-03-17T03:27:07;9.40;99.90
6690;DHT22;76797;51.590;8.116;2024-03-17T03:29:33;9.90;99.90
6690;DHT22;76797;51.590;8.116;2024-03-17T03:31:59;9.40;99.90
6690;DHT22;76797;51.590;8.116;2024-03-17T03:34:25;9.40;99.90
6690;DHT22;76797;51.590;8.116;2024-03-17T03:36:50;9.40;99.90
6690;DHT22;76797;51.590;8.116;2024-03-17T03:39:17;9.70;99.90
6690;DHT22;76797;51.590;8.116;2024-03-17T03:41:44;9.70;99.90
6690;DHT22;76797;51.590;8.116;2024-03-17T03:44:09;9.40;99.90
6690;DHT22;76797;51.590;8.116;2024-03-17T03:46:36;9.40;99.90
6690;DHT22;76797;51.590;8.116;2024-03-17T03:49:01;9.40;99.90
6690;DHT22;76797;51.590;8.116;2024-03-17T03:51:27;9.40;99.90
6690;DHT22;76797;51.590;8.116;2024-03-17T03:53:52;9.40;99.90
6690;DHT22;76797;51.590;8.116;2024-03-17T03:56:18;9.40;99.90
6690;DHT22;76797;51.590;8.116;2024-03-17T03:58:43;9.40;99.90
6690;DHT22;76797;51.590;8.116;2024-03-17T04:01:11;9.40;99.90
6690;DHT22;76797;51.590;8.116;2024-03-17T04:03:37;9.40;99.90
6690;DHT22;76797;51.590;8.116;2024-03-17T04:06:07;9.40;99.90
6690;DHT22;76797;51.590;8.116;2024-03-17T04:08:34;9.40;99.90
6690;DHT22;76797;51.590;8.116;2024-03-17T04:11:01;9.40;99.90
6690;DHT22;76797;51.590;8.116;2024-03-17T04:13:27;9.40;99.90
6690;DHT22;76797;51.590;8.116;2024-03-17T04:15:57;9.40;99.90
6690;DHT22;76797;51.590;8.116;2024-03-17T04:18:24;9.40;99.90
6690;DHT22;76797;51.590;8.116;2024-03-17T04:20:53;9.40;99.90
6690;DHT22;76797;51.590;8.116;2024-03-17T04:23:23;9.40;99.90
6690;DHT22;76797;51.590;8.116;2024-03-17T04:25:49;9.40;99.90
6690;DHT22;76797;51.590;8.116;2024-03-17T04:28:16;9.80;99.90
6690;DHT22;76797;51.590;8.116;2024-03-17T04:30:41;9.40;99.90
6690;DHT22;76797;51.590;8.116;2024-03-17T04:33:08;9.40;99.90
6690;DHT22;76797;51.590;8.116;2024-03-17T04:35:40;9.40;99.90
6690;DHT22;76797;51.590;8.116;2024-03-17T04:38:09;9.40;99.90
6690;DHT22;76797;51.590;8.116;2024-03-17T04:40:39;9.40;99.90
6690;DHT22;76797;51.590;8.116;2024-03-17T04:43:05;9.40;99.90
6690;DHT22;76797;51.590;8.116;2024-03-17T04:45:31;9.40;99.90
6690;DHT22;76797;51.590;8.116;2024-03-17T04:47:56;9.40;99.90
6690;DHT22;76797;51.590;8.116;2024-03-17T04:50:22;9.70;99.90
6690;DHT22;76797;51.590;8.116;2024-03-17T04:52:47;9.50;99.90
6690;DHT22;76797;51.590;8.116;2024-03-17T04:55:14;9.60;99.90
6690;DHT22;76797;51.590;8.116;2024-03-17T04:57:39;9.40;99.90
6690;DHT22;76797;51.590;8.116;2024-03-17T05:00:05;9.70;99.90
6690;DHT22;76797;51.590;8.116;2024-03-17T05:02:32;9.50;99.90
6690;DHT22;76797;51.590;8.116;2024-03-17T05:04:58;9.90;99.90
6690;DHT22;76797;51.590;8.116;2024-03-17T05:07:24;9.40;99.90
6690;DHT22;76797;51.590;8.116;2024-03-17T05:09:50;9.40;99.90
6690;DHT22;76797;51.590;8.116;2024-03-17T05:12:16;9.40;99.90
6690;DHT22;76797;51.590;8.116;2024-03-17T05:14:41;9.40;99.90
6690;DHT22;76797;51.590;8.116;2024-03-17T05:17:07;9.30;99.90
6690;DHT22;76797;51.590;8.116;2024-03-17T05:19:32;9.30;99.90
6690;DHT22;76797;51.590;8.116;2024-03-17T05:21:58;9.40;99.90
6690;DHT22;76797;51.590;8.116;2024-03-17T05:24:23;9.20;99.90
6690;DHT22;76797;51.590;8.116;2024-03-17T05:26:49;9.20;99.90
6690;DHT22;76797;51.590;8.116;2024-03-17T05:29:14;9.10;99.90
6690;DHT22;76797;51.590;8.116;2024-03-17T05:31:40;9.10;99.90
6690;DHT22;76797;51.590;8.116;2024-03-17T05:34:08;9.00;99.90
6690;DHT22;76797;51.590;8.116;2024-03-17T05:36:35;9.50;99.90
6690;DHT22;76797;51.590;8.116;2024-03-17T05:39:01;9.00;99.90
6690;DHT22;76797;51.590;8.116;2024-03-17T05:41:27;9.00;99.90
6690;DHT22;76797;51.590;8.116;2024-03-17T05:43:53;9.00;99.90
6690;DHT22;76797;51.590;8.116;2024-03-17T05:46:19;9.50;99.90
6690;DHT22;76797;51.590;8.116;2024-03-17T05:48:45;8.90;99.90
6690;DHT22;76797;51.590;8.116;2024-03-17T05:51:11;9.00;99.90
6690;DHT22;76797;51.590;8.116;2024-03-17T05:53:38;9.00;99.90
6690;DHT22;76797;51.590;8.116;2024-03-17T05:56:06;9.40;99.90
6690;DHT22;76797;51.590;8.116;2024-03-17T05:58:34;9.00;99.90
6690;DHT22;76797;51.590;8.116;2024-03-17T06:01:02;9.40;99.90
6690;DHT22;76797;51.590;8.116;2024-03-17T06:03:28;9.30;99.90
6690;DHT22;76797;51.590;8.116;2024-03-17T06:05:53;9.40;99.90
6690;DHT22;76797;51.590;8.116;2024-03-17T06:08:19;9.00;99.90
6690;DHT22;76797;51.590;8.116;2024-03-17T06:10:46;9.00;99.90
6690;DHT22;76797;51.590;8.116;2024-03-17T06:13:12;9.00;99.90
6690;DHT22;76797;51.590;8.116;2024-03-17T06:15:41;9.00;99.90
6690;DHT22;76797;51.590;8.116;2024-03-17T06:18:08;9.00;99.90
6690;DHT22;76797;51.590;8.116;2024-03-17T06:20:35;9.10;99.90
6690;DHT22;76797;51.590;8.116;2024-03-17T06:23:04;9.10;99.90
6690;DHT22;76797;51.590;8.116;2024-03-17T06:25:30;9.60;99.90
6690;DHT22;76797;51.590;8.116;2024-03-17T06:27:55;9.20;99.90
6690;DHT22;76797;51.590;8.116;2024-03-17T06:30:22;9.20;99.90
6690;DHT22;76797;51.590;8.116;2024-03-17T06:32:48;9.30;99.90
6690;DHT22;76797;51.590;8.116;2024-03-17T06:35:14;9.30;99.90
6690;DHT22;76797;51.590;8.116;2024-03-17T06:37:44;9.30;99.90
6690;DHT22;76797;51.590;8.116;2024-03-17T06:40:18;9.30;99.90
6690;DHT22;76797;51.590;8.116;2024-03-17T06:42:44;9.40;99.90
6690;DHT22;76797;51.590;8.116;2024-03-17T06:45:09;9.40;99.90
6690;DHT22;76797;51.590;8.116;2024-03-17T06:47:36;9.40;99.90
6690;DHT22;76797;51.590;8.116;2024-03-17T06:50:03;9.60;99.90
6690;DHT22;76797;51.590;8.116;2024-03-17T06:52:29;9.50;99.90
6690;DHT22;76797;51.590;8.116;2024-03-17T06:54:54;9.60;99.90
6690;DHT22;76797;51.590;8.116;2024-03-17T06:57:20;9.70;99.90
6690;DHT22;76797;51.590;8.116;2024-03-17T06:59:46;9.80;99.90
6690;DHT22;76797;51.590;8.116;2024-03-17T07:02:13;9.90;99.90
6690;DHT22;76797;51.590;8.116;2024-03-17T07:04:43;9.90;99.90
6690;DHT22;76797;51.590;8.116;2024-03-17T07:07:09;10.00;99.90
6690;DHT22;76797;51.590;8.116;2024-03-17T07:09:34;10.10;99.90
6690;DHT22;76797;51.590;8.116;2024-03-17T07:12:00;10.20;99.90
6690;DHT22;76797;51.590;8.116;2024-03-17T07:14:25;10.30;99.90
6690;DHT22;76797;51.590;8.116;2024-03-17T07:16:51;10.30;99.90
6690;DHT22;76797;51.590;8.116;2024-03-17T07:19:17;10.40;99.90
6690;DHT22;76797;51.590;8.116;2024-03-17T07:21:43;10.50;99.90
6690;DHT22;76797;51.590;8.116;2024-03-17T07:24:08;10.70;99.90
6690;DHT22;76797;51.590;8.116;2024-03-17T07:26:34;10.90;99.90
6690;DHT22;76797;51.590;8.116;2024-03-17T07:29:00;11.20;99.90
6690;DHT22;76797;51.590;8.116;2024-03-17T07:31:25;11.30;99.90
6690;DHT22;76797;51.590;8.116;2024-03-17T07:33:51;11.70;99.90
6690;DHT22;76797;51.590;8.116;2024-03-17T07:36:16;11.50;99.90
6690;DHT22;76797;51.590;8.116;2024-03-17T07:38:42;11.50;99.90
6690;DHT22;76797;51.590;8.116;2024-03-17T07:41:09;11.60;99.90
6690;DHT22;76797;51.590;8.116;2024-03-17T07:43:36;11.60;99.90
6690;DHT22;76797;51.590;8.116;2024-03-17T07:46:04;11.80;99.90
6690;DHT22;76797;51.590;8.116;2024-03-17T07:48:31;11.60;99.90
6690;DHT22;76797;51.590;8.116;2024-03-17T07:51:11;11.70;99.90
6690;DHT22;76797;51.590;8.116;2024-03-17T07:53:39;11.70;99.90
6690;DHT22;76797;51.590;8.116;2024-03-17T07:56:09;11.70;99.90
6690;DHT22;76797;51.590;8.116;2024-03-17T07:58:37;11.70;99.90
6690;DHT22;76797;51.590;8.116;2024-03-17T08:01:07;11.80;99.90
6690;DHT22;76797;51.590;8.116;2024-03-17T08:03:36;11.90;99.90
6690;DHT22;76797;51.590;8.116;2024-03-17T08:06:03;11.80;99.90
6690;DHT22;76797;51.590;8.116;2024-03-17T08:08:29;11.90;99.90
6690;DHT22;76797;51.590;8.116;2024-03-17T08:10:54;12.00;99.90
6690;DHT22;76797;51.590;8.116;2024-03-17T08:13:21;12.00;99.90
6690;DHT22;76797;51.590;8.116;2024-03-17T08:15:55;12.00;99.90
6690;DHT22;76797;51.590;8.116;2024-03-17T08:18:21;12.10;99.90
6690;DHT22;76797;51.590;8.116;2024-03-17T08:20:47;12.20;99.90
6690;DHT22;76797;51.590;8.116;2024-03-17T08:23:12;12.20;99.90
6690;DHT22;76797;51.590;8.116;2024-03-17T08:25:39;12.30;99.90
6690;DHT22;76797;51.590;8.116;2024-03-17T08:28:05;12.40;99.90
6690;DHT22;76797;51.590;8.116;2024-03-17T08:30:32;12.50;99.90
6690;DHT22;76797;51.590;8.116;2024-03-17T08:32:58;13.00;99.90
6690;DHT22;76797;51.590;8.116;2024-03-17T08:35:23;12.80;99.90
6690;DHT22;76797;51.590;8.116;2024-03-17T08:37:49;12.80;99.90
6690;DHT22;76797;51.590;8.116;2024-03-17T08:40:17;12.90;99.90
6690;DHT22;76797;51.590;8.116;2024-03-17T08:42:42;13.00;99.90
6690;DHT22;76797;51.590;8.116;2024-03-17T08:45:10;13.20;99.90
6690;DHT22;76797;51.590;8.116;2024-03-17T08:47:36;13.20;99.90
6690;DHT22;76797;51.590;8.116;2024-03-17T08:50:01;13.40;99.90
6690;DHT22;76797;51.590;8.116;2024-03-17T08:52:30;13.60;99.90
6690;DHT22;76797;51.590;8.116;2024-03-17T08:54:57;13.60;99.90
6690;DHT22;76797;51.590;8.116;2024-03-17T08:57:23;13.70;99.90
6690;DHT22;76797;51.590;8.116;2024-03-17T08:59:48;13.80;99.90
6690;DHT22;76797;51.590;8.116;2024-03-17T09:02:14;13.90;99.90
6690;DHT22;76797;51.590;8.116;2024-03-17T09:04:41;14.00;99.90
6690;DHT22;76797;51.590;8.116;2024-03-17T09:07:06;14.30;99.90
6690;DHT22;76797;51.590;8.116;2024-03-17T09:09:32;14.20;99.90
6690;DHT22;76797;51.590;8.116;2024-03-17T09:11:58;14.20;99.90
6690;DHT22;76797;51.590;8.116;2024-03-17T09:14:24;14.30;99.90
6690;DHT22;76797;51.590;8.116;2024-03-17T09:16:49;14.30;99.90
6690;DHT22;76797;51.590;8.116;2024-03-17T09:19:15;14.40;99.90
6690;DHT22;76797;51.590;8.116;2024-03-17T09:21:40;14.40;99.90
6690;DHT22;76797;51.590;8.116;2024-03-17T09:24:09;14.50;99.90
6690;DHT22;76797;51.590;8.116;2024-03-17T09:26:35;14.50;99.90
6690;DHT22;76797;51.590;8.116;2024-03-17T09:29:03;14.50;99.90
6690;DHT22;76797;51.590;8.116;2024-03-17T09:31:29;14.60;99.90
6690;DHT22;76797;51.590;8.116;2024-03-17T09:33:56;14.60;99.90
6690;DHT22;76797;51.590;8.116;2024-03-17T09:36:21;14.80;99.90
6690;DHT22;76797;51.590;8.116;2024-03-17T09:38:47;14.80;99.90
6690;DHT22;76797;51.590;8.116;2024-03-17T09:41:21;14.70;99.90
6690;DHT22;76797;51.590;8.116;2024-03-17T09:43:54;14.90;99.90
6690;DHT22;76797;51.590;8.116;2024-03-17T09:46:20;14.80;99.90
6690;DHT22;76797;51.590;8.116;2024-03-17T09:48:47;14.90;99.90
6690;DHT22;76797;51.590;8.116;2024-03-17T09:51:18;14.90;99.90
6690;DHT22;76797;51.590;8.116;2024-03-17T09:53:45;14.90;99.90
6690;DHT22;76797;51.590;8.116;2024-03-17T09:56:15;14.90;99.90
6690;DHT22;76797;51.590;8.116;2024-03-17T09:58:44;15.00;99.90
6690;DHT22;76797;51.590;8.116;2024-03-17T10:01:10;15.00;99.90
6690;DHT22;76797;51.590;8.116;2024-03-17T10:03:48;14.90;99.90
6690;DHT22;76797;51.590;8.116;2024-03-17T10:06:20;14.90;99.90
6690;DHT22;76797;51.590;8.116;2024-03-17T10:08:47;14.90;99.90
6690;DHT22;76797;51.590;8.116;2024-03-17T10:11:14;15.00;99.90
6690;DHT22;76797;51.590;8.116;2024-03-17T10:13:44;14.90;99.90
6690;DHT22;76797;51.590;8.116;2024-03-17T10:16:27;14.90;99.90
6690;DHT22;76797;51.590;8.116;2024-03-17T10:21:38;14.80;99.90
6690;DHT22;76797;51.590;8.116;2024-03-17T10:24:13;14.90;99.90
6690;DHT22;76797;51.590;8.116;2024-03-17T10:26:43;14.90;99.90
6690;DHT22;76797;51.590;8.116;2024-03-17T10:29:20;15.20;99.90
6690;DHT22;76797;51.590;8.116;2024-03-17T10:31:48;14.90;99.90
6690;DHT22;76797;51.590;8.116;2024-03-17T10:34:15;15.00;99.90
6690;DHT22;76797;51.590;8.116;2024-03-17T10:36:45;15.00;99.90
6690;DHT22;76797;51.590;8.116;2024-03-17T10:39:26;15.00;99.90
6690;DHT22;76797;51.590;8.116;2024-03-17T10:42:01;15.00;99.90
6690;DHT22;76797;51.590;8.116;2024-03-17T10:44:28;15.00;99.90
6690;DHT22;76797;51.590;8.116;2024-03-17T10:46:55;15.10;99.90
6690;DHT22;76797;51.590;8.116;2024-03-17T10:49:34;15.10;99.90
6690;DHT22;76797;51.590;8.116;2024-03-17T10:54:30;15.20;99.90
6690;DHT22;76797;51.590;8.116;2024-03-17T11:00:01;15.20;99.90
6690;DHT22;76797;51.590;8.116;2024-03-17T11:02:31;15.20;99.90
6690;DHT22;76797;51.590;8.116;2024-03-17T11:05:07;15.30;99.90
6690;DHT22;76797;51.590;8.116;2024-03-17T11:07:37;15.30;99.90
6690;DHT22;76797;51.590;8.116;2024-03-17T11:10:09;15.30;99.90
6690;DHT22;76797;51.590;8.116;2024-03-17T11:17:55;15.40;99.90
6690;DHT22;76797;51.590;8.116;2024-03-17T11:20:26;15.40;99.90
6690;DHT22;76797;51.590;8.116;2024-03-17T11:22:54;15.40;99.90
6690;DHT22;76797;51.590;8.116;2024-03-17T11:27:55;15.50;99.90
6690;DHT22;76797;51.590;8.116;2024-03-17T11:30:49;15.60;99.90
6690;DHT22;76797;51.590;8.116;2024-03-17T11:39:03;15.60;99.90
6690;DHT22;76797;51.590;8.116;2024-03-17T11:41:53;15.80;99.90
6690;DHT22;76797;51.590;8.116;2024-03-17T11:51:46;16.00;99.90
6690;DHT22;76797;51.590;8.116;2024-03-17T11:54:17;16.00;99.90
6690;DHT22;76797;51.590;8.116;2024-03-17T11:56:51;16.00;99.90
6690;DHT22;76797;51.590;8.116;2024-03-17T11:59:18;16.10;99.90
6690;DHT22;76797;51.590;8.116;2024-03-17T12:01:46;16.20;99.90
6690;DHT22;76797;51.590;8.116;2024-03-17T12:04:14;16.30;99.90
6690;DHT22;76797;51.590;8.116;2024-03-17T12:06:41;16.30;99.90
6690;DHT22;76797;51.590;8.116;2024-03-17T12:12:09;16.50;99.90
6690;DHT22;76797;51.590;8.116;2024-03-17T12:14:36;16.60;99.90
6690;DHT22;76797;51.590;8.116;2024-03-17T12:17:04;16.60;99.90
6690;DHT22;76797;51.590;8.116;2024-03-17T12:19:30;16.60;99.90
6690;DHT22;76797;51.590;8.116;2024-03-17T12:21:58;16.70;99.90
6690;DHT22;76797;51.590;8.116;2024-03-17T12:24:30;16.80;99.90
6690;DHT22;76797;51.590;8.116;2024-03-17T12:26:57;16.80;99.90
6690;DHT22;76797;51.590;8.116;2024-03-17T12:29:34;16.80;99.90
6690;DHT22;76797;51.590;8.116;2024-03-17T12:32:05;16.90;99.90
6690;DHT22;76797;51.590;8.116;2024-03-17T12:34:32;16.90;99.90
6690;DHT22;76797;51.590;8.116;2024-03-17T12:36:59;17.00;99.90
6690;DHT22;76797;51.590;8.116;2024-03-17T12:39:27;17.00;99.90
6690;DHT22;76797;51.590;8.116;2024-03-17T12:42:15;17.20;99.90
6690;DHT22;76797;51.590;8.116;2024-03-17T12:44:50;17.10;99.90
6690;DHT22;76797;51.590;8.116;2024-03-17T12:47:18;17.10;99.90
6690;DHT22;76797;51.590;8.116;2024-03-17T12:49:49;17.20;99.90
6690;DHT22;76797;51.590;8.116;2024-03-17T12:52:19;17.20;99.90
6690;DHT22;76797;51.590;8.116;2024-03-17T12:55:07;17.30;99.90
6690;DHT22;76797;51.590;8.116;2024-03-17T12:58:06;17.30;99.90
6690;DHT22;76797;51.590;8.116;2024-03-17T13:01:04;17.40;99.90
6690;DHT22;76797;51.590;8.116;2024-03-17T13:03:36;17.40;99.90
6690;DHT22;76797;51.590;8.116;2024-03-17T13:06:03;17.60;99.90
6690;DHT22;76797;51.590;8.116;2024-03-17T13:08:31;17.70;99.90
6690;DHT22;76797;51.590;8.116;2024-03-17T13:10:57;17.60;99.90
6690;DHT22;76797;51.590;8.116;2024-03-17T13:13:23;17.70;99.90
6690;DHT22;76797;51.590;8.116;2024-03-17T13:15:49;17.70;99.90
6690;DHT22;76797;51.590;8.116;2024-03-17T13:18:18;17.80;99.90
6690;DHT22;76797;51.590;8.116;2024-03-17T13:20:49;17.80;99.90
6690;DHT22;76797;51.590;8.116;2024-03-17T13:23:15;17.90;99.90
6690;DHT22;76797;51.590;8.116;2024-03-17T13:25:41;17.90;99.90
6690;DHT22;76797;51.590;8.116;2024-03-17T13:28:09;18.00;99.90
6690;DHT22;76797;51.590;8.116;2024-03-17T13:30:34;18.00;99.90
6690;DHT22;76797;51.590;8.116;2024-03-17T13:33:02;18.00;99.90
6690;DHT22;76797;51.590;8.116;2024-03-17T13:35:34;18.10;99.90
6690;DHT22;76797;51.590;8.116;2024-03-17T13:38:00;18.10;99.90
6690;DHT22;76797;51.590;8.116;2024-03-17T13:40:27;18.10;99.90
6690;DHT22;76797;51.590;8.116;2024-03-17T13:42:54;18.10;99.90
6690;DHT22;76797;51.590;8.116;2024-03-17T13:45:21;18.10;99.90
6690;DHT22;76797;51.590;8.116;2024-03-17T13:47:56;18.20;99.90
6690;DHT22;76797;51.590;8.116;2024-03-17T13:50:22;18.20;99.90
6690;DHT22;76797;51.590;8.116;2024-03-17T13:52:48;18.20;99.90
6690;DHT22;76797;51.590;8.116;2024-03-17T13:55:17;18.20;99.90
6690;DHT22;76797;51.590;8.116;2024-03-17T13:57:44;18.20;99.90
6690;DHT22;76797;51.590;8.116;2024-03-17T14:00:11;18.20;99.90
6690;DHT22;76797;51.590;8.116;2024-03-17T14:02:44;18.20;99.90
6690;DHT22;76797;51.590;8.116;2024-03-17T14:05:14;18.20;99.90
6690;DHT22;76797;51.590;8.116;2024-03-17T14:07:40;18.10;99.90
6690;DHT22;76797;51.590;8.116;2024-03-17T14:10:06;18.30;99.90
6690;DHT22;76797;51.590;8.116;2024-03-17T14:12:34;18.10;99.90
6690;DHT22;76797;51.590;8.116;2024-03-17T14:14:59;18.10;99.90
6690;DHT22;76797;51.590;8.116;2024-03-17T14:17:25;18.10;99.90
6690;DHT22;76797;51.590;8.116;2024-03-17T14:19:50;18.10;99.90
6690;DHT22;76797;51.590;8.116;2024-03-17T14:22:16;18.00;99.90
6690;DHT22;76797;51.590;8.116;2024-03-17T14:24:41;18.00;99.90
6690;DHT22;76797;51.590;8.116;2024-03-17T14:27:07;18.00;99.90
6690;DHT22;76797;51.590;8.116;2024-03-17T14:29:34;17.90;99.90
6690;DHT22;76797;51.590;8.116;2024-03-17T14:31:59;17.90;99.90
6690;DHT22;76797;51.590;8.116;2024-03-17T14:34:25;17.90;99.90
6690;DHT22;76797;51.590;8.116;2024-03-17T14:36:52;18.00;99.90
6690;DHT22;76797;51.590;8.116;2024-03-17T14:39:17;17.80;99.90
6690;DHT22;76797;51.590;8.116;2024-03-17T14:41:43;18.00;99.90
6690;DHT22;76797;51.590;8.116;2024-03-17T14:44:08;17.80;99.90
6690;DHT22;76797;51.590;8.116;2024-03-17T14:46:34;17.80;99.90
6690;DHT22;76797;51.590;8.116;2024-03-17T14:49:00;17.70;99.90
6690;DHT22;76797;51.590;8.116;2024-03-17T14:51:26;17.70;99.90
6690;DHT22;76797;51.590;8.116;2024-03-17T14:53:52;17.60;99.90
6690;DHT22;76797;51.590;8.116;2024-03-17T14:56:18;17.60;99.90
6690;DHT22;76797;51.590;8.116;2024-03-17T14:58:45;17.60;99.90
6690;DHT22;76797;51.590;8.116;2024-03-17T15:01:14;17.60;99.90
6690;DHT22;76797;51.590;8.116;2024-03-17T15:03:39;17.60;99.90
6690;DHT22;76797;51.590;8.116;2024-03-17T15:06:14;17.60;99.90
6690;DHT22;76797;51.590;8.116;2024-03-17T15:08:41;17.60;99.90
6690;DHT22;76797;51.590;8.116;2024-03-17T15:11:07;17.60;99.90
6690;DHT22;76797;51.590;8.116;2024-03-17T15:13:34;17.60;99.90
6690;DHT22;76797;51.590;8.116;2024-03-17T15:16:01;17.70;99.90
6690;DHT22;76797;51.590;8.116;2024-03-17T15:18:28;17.50;99.90
6690;DHT22;76797;51.590;8.116;2024-03-17T15:20:54;17.50;99.90
6690;DHT22;76797;51.590;8.116;2024-03-17T15:23:22;17.50;99.90
6690;DHT22;76797;51.590;8.116;2024-03-17T15:26:05;17.50;99.90
6690;DHT22;76797;51.590;8.116;2024-03-17T15:28:34;17.40;99.90
6690;DHT22;76797;51.590;8.116;2024-03-17T15:31:02;17.60;99.90
6690;DHT22;76797;51.590;8.116;2024-03-17T15:33:28;17.30;99.90
6690;DHT22;76797;51.590;8.116;2024-03-17T15:35:54;17.30;99.90
6690;DHT22;76797;51.590;8.116;2024-03-17T15:38:19;17.20;99.90
6690;DHT22;76797;51.590;8.116;2024-03-17T15:40:47;17.20;99.90
6690;DHT22;76797;51.590;8.116;2024-03-17T15:43:13;17.40;99.90
6690;DHT22;76797;51.590;8.116;2024-03-17T15:45:38;17.20;99.90
6690;DHT22;76797;51.590;8.116;2024-03-17T15:48:05;17.20;99.90
6690;DHT22;76797;51.590;8.116;2024-03-17T15:50:30;17.10;99.90
6690;DHT22;76797;51.590;8.116;2024-03-17T15:52:56;17.20;99.90
6690;DHT22;76797;51.590;8.116;2024-03-17T15:55:22;17.00;99.90
6690;DHT22;76797;51.590;8.116;2024-03-17T15:57:48;17.00;99.90
6690;DHT22;76797;51.590;8.116;2024-03-17T16:00:14;17.00;99.90
6690;DHT22;76797;51.590;8.116;2024-03-17T16:02:42;16.90;99.90
6690;DHT22;76797;51.590;8.116;2024-03-17T16:05:09;17.20;99.90
6690;DHT22;76797;51.590;8.116;2024-03-17T16:07:37;16.80;99.90
6690;DHT22;76797;51.590;8.116;2024-03-17T16:10:04;16.90;99.90
6690;DHT22;76797;51.590;8.116;2024-03-17T16:12:31;16.80;99.90
6690;DHT22;76797;51.590;8.116;2024-03-17T16:14:56;16.70;99.90
6690;DHT22;76797;51.590;8.116;2024-03-17T16:17:29;16.70;99.90
6690;DHT22;76797;51.590;8.116;2024-03-17T16:19:56;16.60;99.90
6690;DHT22;76797;51.590;8.116;2024-03-17T16:22:24;16.60;99.90
6690;DHT22;76797;51.590;8.116;2024-03-17T16:24:51;16.60;99.90
6690;DHT22;76797;51.590;8.116;2024-03-17T16:27:16;16.60;99.90